createdAt,value
2022-10-28T00:47:44.540Z,101929.47
2022-10-28T00:50:43.788Z,101928.66
2022-10-28T00:53:16.580Z,101917.66
2022-10-28T00:55:45.204Z,101904.25
2022-10-28T00:58:12.934Z,101909.78
2022-10-28T01:00:39.826Z,101914.53
2022-10-28T01:03:07.059Z,101891.72
2022-10-28T01:05:36.817Z,101903.50
2022-10-28T01:08:05.328Z,101900.69
2022-10-28T01:10:56.371Z,101903.81
2022-10-28T01:13:41.632Z,101894.34
2022-10-28T01:16:26.906Z,101895.44
2022-10-28T01:19:38.569Z,101896.47
2022-10-28T01:22:33.641Z,101887.59
2022-10-28T01:25:19.422Z,101888.59
2022-10-28T01:28:24.208Z,101890.72
2022-10-28T01:31:09.882Z,101892.56
2022-10-28T01:34:03.824Z,101892.84
2022-10-28T01:36:36.548Z,101885.25
2022-10-28T01:39:10.265Z,101881.84
2022-10-28T01:42:00.850Z,101885.25
2022-10-28T01:44:46.742Z,101883.97
2022-10-28T01:47:23.203Z,101887.09
2022-10-28T01:50:08.858Z,101879.22
2022-10-28T01:52:40.438Z,101885.00
2022-10-28T01:55:25.771Z,101880.34
2022-10-28T01:57:57.939Z,101872.72
2022-10-28T02:00:26.617Z,101867.47
2022-10-28T02:02:56.152Z,101861.44
2022-10-28T02:05:43.604Z,101867.97
2022-10-28T02:08:29.141Z,101857.53
2022-10-28T02:11:03.358Z,101863.53
2022-10-28T02:14:07.658Z,101860.41
2022-10-28T02:16:59.214Z,101860.41
2022-10-28T02:19:43.899Z,101852.59
2022-10-28T02:22:50.727Z,101860.75
2022-10-28T02:25:42.871Z,101847.91
2022-10-28T02:28:14.581Z,101849.25
2022-10-28T02:31:20.402Z,101847.16
2022-10-28T02:33:53.298Z,101843.53
2022-10-28T02:36:23.287Z,101841.75
2022-10-28T02:38:53.519Z,101857.19
2022-10-28T02:41:36.080Z,101852.25
2022-10-28T02:44:11.357Z,101836.75
2022-10-28T02:46:42.137Z,101834.97
2022-10-28T02:49:12.412Z,101837.59
2022-10-28T02:52:00.627Z,101836.53
2022-10-28T02:54:34.515Z,101834.47
2022-10-28T02:57:13.711Z,101844.97
2022-10-28T02:59:40.967Z,101837.88
2022-10-28T03:02:09.215Z,101844.97
2022-10-28T03:04:36.176Z,101840.78
2022-10-28T03:07:03.033Z,101842.63
2022-10-28T03:09:30.030Z,101841.03
2022-10-28T03:11:56.828Z,101834.78
2022-10-28T03:14:23.775Z,101834.00
2022-10-28T03:16:50.668Z,101834.34
2022-10-28T03:19:17.572Z,101830.41
2022-10-28T03:21:44.403Z,101833.03
2022-10-28T03:24:11.288Z,101834.09
2022-10-28T03:26:38.144Z,101835.13
2022-10-28T03:29:04.975Z,101826.25
2022-10-28T03:31:31.994Z,101829.44
2022-10-28T03:33:59.031Z,101842.56
2022-10-28T03:36:25.903Z,101833.66
2022-10-28T03:38:55.538Z,101830.53
2022-10-28T03:41:22.535Z,101827.91
2022-10-28T03:43:49.745Z,101830.56
2022-10-28T03:46:16.601Z,101815.63
2022-10-28T03:48:43.474Z,101819.06
2022-10-28T03:51:10.641Z,101809.66
2022-10-28T03:53:37.595Z,101808.91
2022-10-28T03:56:04.917Z,101803.94
2022-10-28T03:58:31.956Z,101806.31
2022-10-28T04:00:58.817Z,101802.41
2022-10-28T04:03:27.086Z,101797.16
2022-10-28T04:05:54.427Z,101794.84
2022-10-28T04:08:21.739Z,101793.53
2022-10-28T04:10:48.884Z,101803.00
2022-10-28T04:13:17.062Z,101799.88
2022-10-28T04:15:44.379Z,101801.97
2022-10-28T04:18:12.472Z,101800.44
2022-10-28T04:20:39.519Z,101800.97
2022-10-28T04:23:06.808Z,101805.69
2022-10-28T04:25:33.690Z,101802.31
2022-10-28T04:28:00.515Z,101806.00
2022-10-28T04:30:27.391Z,101809.66
2022-10-28T04:32:54.268Z,101815.16
2022-10-28T04:35:21.157Z,101807.34
2022-10-28T04:37:48.046Z,101814.94
2022-10-28T04:40:14.848Z,101802.13
2022-10-28T04:42:41.560Z,101812.59
2022-10-28T04:45:09.029Z,101807.91
2022-10-28T04:47:35.862Z,101807.41
2022-10-28T04:50:03.532Z,101807.41
2022-10-28T04:52:30.419Z,101808.19
2022-10-28T04:54:57.289Z,101800.59
2022-10-28T04:57:24.103Z,101802.16
2022-10-28T04:59:50.779Z,101794.31
2022-10-28T05:02:17.586Z,101792.19
2022-10-28T05:04:44.628Z,101797.44
2022-10-28T05:07:11.492Z,101800.56
2022-10-28T05:09:38.372Z,101795.84
2022-10-28T05:12:05.512Z,101799.53
2022-10-28T05:14:32.372Z,101794.84
2022-10-28T05:16:59.156Z,101793.00
2022-10-28T05:19:26.118Z,101791.94
2022-10-28T05:21:52.965Z,101783.31
2022-10-28T05:24:19.922Z,101787.47
2022-10-28T05:26:46.673Z,101764.97
2022-10-28T05:29:13.522Z,101779.13
2022-10-28T05:31:40.362Z,101785.94
2022-10-28T05:34:07.390Z,101785.63
2022-10-28T05:36:34.386Z,101786.97
2022-10-28T05:39:01.366Z,101780.13
2022-10-28T05:41:28.347Z,101781.72
2022-10-28T05:43:55.278Z,101789.56
2022-10-28T05:46:22.640Z,101772.28
2022-10-28T05:48:49.973Z,101774.66
2022-10-28T05:51:16.985Z,101778.59
2022-10-28T05:53:44.769Z,101776.22
2022-10-28T05:56:11.874Z,101780.13
2022-10-28T05:58:38.944Z,101771.78
2022-10-28T06:01:09.312Z,101777.53
2022-10-28T06:03:37.024Z,101780.69
2022-10-28T06:06:04.099Z,101787.47
2022-10-28T06:08:31.108Z,101783.81
2022-10-28T06:10:56.685Z,101783.81
2022-10-28T06:13:24.024Z,101786.16
2022-10-28T06:15:55.518Z,101781.97
2022-10-28T06:18:23.077Z,101783.28
2022-10-28T06:20:54.981Z,101788.25
2022-10-28T06:23:22.671Z,101783.03
2022-10-28T06:25:52.846Z,101788.78
2022-10-28T06:28:19.907Z,101776.22
2022-10-28T06:30:47.194Z,101789.06
2022-10-28T06:33:14.369Z,101791.69
2022-10-28T06:35:41.526Z,101800.81
2022-10-28T06:40:52.646Z,101801.06
2022-10-28T06:43:19.917Z,101798.47
2022-10-28T06:45:52.449Z,101800.78
2022-10-28T06:48:21.302Z,101808.63
2022-10-28T06:50:48.506Z,101789.78
2022-10-28T06:53:15.762Z,101794.75
2022-10-28T06:55:42.536Z,101810.16
2022-10-28T06:58:11.407Z,101804.66
2022-10-28T07:00:38.408Z,101809.34
2022-10-28T07:03:05.641Z,101805.69
2022-10-28T07:05:44.837Z,101802.50
2022-10-28T07:08:11.932Z,101802.47
2022-10-28T07:10:39.058Z,101807.97
2022-10-28T07:13:06.031Z,101807.41
2022-10-28T07:15:33.592Z,101796.13
2022-10-28T07:18:00.748Z,101794.50
2022-10-28T07:20:33.373Z,101806.22
2022-10-28T07:23:02.062Z,101797.00
2022-10-28T07:25:30.886Z,101809.50
2022-10-28T07:28:00.948Z,101809.72
2022-10-28T07:30:29.289Z,101810.44
2022-10-28T07:33:01.399Z,101814.28
2022-10-28T07:35:29.230Z,101816.63
2022-10-28T07:37:56.353Z,101816.56
2022-10-28T07:40:24.553Z,101813.31
2022-10-28T07:42:52.179Z,101814.06
2022-10-28T07:45:19.326Z,101814.22
2022-10-28T07:47:46.379Z,101815.75
2022-10-28T07:50:13.499Z,101814.31
2022-10-28T07:52:40.494Z,101818.66
2022-10-28T07:55:08.647Z,101826.19
2022-10-28T07:57:35.933Z,101837.66
2022-10-28T08:00:03.433Z,101833.53
2022-10-28T08:02:30.470Z,101833.41
2022-10-28T08:04:57.495Z,101837.47
2022-10-28T08:07:24.364Z,101845.22
2022-10-28T08:09:53.074Z,101827.81
2022-10-28T08:12:20.104Z,101825.91
2022-10-28T08:14:47.784Z,101823.94
2022-10-28T08:17:14.874Z,101823.78
2022-10-28T08:19:41.897Z,101836.31
2022-10-28T08:22:09.440Z,101833.59
2022-10-28T08:24:36.940Z,101822.94
2022-10-28T08:27:03.990Z,101822.75
2022-10-28T08:29:30.939Z,101826.78
2022-10-28T08:31:58.153Z,101831.78
2022-10-28T08:34:30.013Z,101837.84
2022-10-28T08:37:04.947Z,101846.03
2022-10-28T08:39:32.235Z,101834.22
2022-10-28T08:42:08.417Z,101836.69
2022-10-28T08:45:15.790Z,101845.94
2022-10-28T08:51:08.649Z,101846.22
2022-10-28T08:56:41.300Z,101844.47
2022-10-28T08:59:13.372Z,101828.06
2022-10-28T09:01:50.024Z,101821.00
2022-10-28T09:04:44.380Z,101832.72
2022-10-28T09:07:27.613Z,101832.28
2022-10-28T09:09:56.057Z,101828.19
2022-10-28T09:13:14.363Z,101823.44
2022-10-28T09:15:48.092Z,101828.47
2022-10-28T09:18:47.632Z,101826.38
2022-10-28T09:21:20.622Z,101836.97
2022-10-28T09:23:55.186Z,101831.28
2022-10-28T09:26:24.987Z,101831.63
2022-10-28T09:28:55.110Z,101822.81
2022-10-28T09:31:35.990Z,101829.72
2022-10-28T09:34:18.071Z,101824.00
2022-10-28T09:36:56.293Z,101828.84
2022-10-28T09:39:28.649Z,101824.81
2022-10-28T09:42:01.238Z,101840.03
2022-10-28T09:44:48.386Z,101839.16
2022-10-28T09:47:35.187Z,101833.56
2022-10-28T09:50:12.431Z,101829.22
2022-10-28T09:53:03.083Z,101831.41
2022-10-28T09:55:31.886Z,101831.41
2022-10-28T09:58:00.345Z,101829.34
2022-10-28T10:00:27.356Z,101827.97
2022-10-28T10:03:03.441Z,101839.03
2022-10-28T10:05:33.891Z,101832.84
2022-10-28T10:08:04.938Z,101839.25
2022-10-28T10:10:50.403Z,101839.88
2022-10-28T10:13:37.735Z,101836.59
2022-10-28T10:16:17.902Z,101837.56
2022-10-28T10:18:50.632Z,101832.13
2022-10-28T10:21:20.510Z,101840.06
2022-10-28T10:23:47.417Z,101829.66
2022-10-28T10:26:17.177Z,101818.97
2022-10-28T10:28:51.849Z,101819.59
2022-10-28T10:31:27.960Z,101805.28
2022-10-28T10:36:55.983Z,101809.63
2022-10-28T10:39:37.917Z,101802.63
2022-10-28T10:42:16.739Z,101803.84
2022-10-28T10:44:47.548Z,101801.31
2022-10-28T10:47:18.653Z,101802.53
2022-10-28T10:49:59.839Z,101791.34
2022-10-28T10:52:40.272Z,101795.81
2022-10-28T10:55:19.370Z,101789.59
2022-10-28T10:57:48.426Z,101794.88
2022-10-28T11:00:21.055Z,101809.50
2022-10-28T11:02:50.009Z,101816.47
2022-10-28T11:05:25.834Z,101811.66
2022-10-28T11:07:59.284Z,101818.00
2022-10-28T11:16:56.220Z,101798.84
2022-10-28T11:19:42.896Z,101805.50
2022-10-28T11:22:37.102Z,101803.78
2022-10-28T11:25:27.820Z,101792.22
2022-10-28T11:31:29.357Z,101803.09
2022-10-28T11:34:20.574Z,101805.41
2022-10-28T11:37:17.602Z,101792.75
2022-10-28T11:40:10.707Z,101800.19
2022-10-28T11:43:08.233Z,101816.34
2022-10-28T11:45:50.284Z,101802.28
2022-10-28T11:48:41.841Z,101818.09
2022-10-28T11:51:46.060Z,101813.88
2022-10-28T11:54:32.102Z,101814.47
2022-10-28T11:57:16.806Z,101812.25
2022-10-28T12:00:09.859Z,101808.31
2022-10-28T12:02:49.350Z,101808.91
2022-10-28T12:05:46.818Z,101825.84
2022-10-28T12:08:31.855Z,101825.84
2022-10-28T12:11:10.091Z,101819.56
2022-10-28T12:13:45.932Z,101821.03
2022-10-28T12:16:26.290Z,101831.66
2022-10-28T12:19:16.432Z,101820.91
2022-10-28T12:21:51.345Z,101825.75
2022-10-28T12:24:24.396Z,101815.38
2022-10-28T12:27:02.964Z,101810.81
2022-10-28T12:29:34.222Z,101817.22
2022-10-28T12:32:06.242Z,101825.31
2022-10-28T12:34:38.909Z,101831.38
2022-10-28T12:37:12.019Z,101838.25
2022-10-28T12:39:47.936Z,101841.09
2022-10-28T12:42:37.752Z,101827.72
2022-10-28T12:45:11.611Z,101822.47
2022-10-28T12:48:15.154Z,101820.34
2022-10-28T12:51:06.155Z,101827.25
2022-10-28T12:53:59.078Z,101826.81
2022-10-28T12:56:34.655Z,101832.75
2022-10-28T12:59:07.136Z,101843.69
2022-10-28T13:01:36.831Z,101846.00
2022-10-28T13:04:04.556Z,101853.47
2022-10-28T13:06:52.720Z,101848.06
2022-10-28T13:09:39.333Z,101865.72
2022-10-28T13:12:45.810Z,101871.34
2022-10-28T13:15:46.772Z,101873.53
2022-10-28T13:19:08.217Z,101875.59
2022-10-28T13:21:57.791Z,101875.44
2022-10-28T13:24:37.275Z,101865.50
2022-10-28T13:27:05.786Z,101881.41
2022-10-28T13:29:35.025Z,101874.53
2022-10-28T13:32:02.400Z,101876.88
2022-10-28T13:34:39.349Z,101882.94
2022-10-28T13:40:04.920Z,101885.72
2022-10-28T13:42:53.685Z,101893.53
2022-10-28T13:45:50.502Z,101889.81
2022-10-28T13:48:48.343Z,101892.16
2022-10-28T13:51:15.618Z,101886.84
2022-10-28T13:53:45.545Z,101882.31
2022-10-28T13:56:35.884Z,101885.28
2022-10-28T13:59:15.150Z,101881.09
2022-10-28T14:01:42.165Z,101895.09
2022-10-28T14:04:31.995Z,101900.88
2022-10-28T14:07:10.871Z,101909.44
2022-10-28T14:09:41.426Z,101920.38
2022-10-28T14:12:17.946Z,101927.22
2022-10-28T14:15:18.248Z,101931.75
2022-10-28T14:18:15.803Z,101929.59
2022-10-28T14:21:01.087Z,101928.81
2022-10-28T14:23:28.132Z,101937.88
2022-10-28T14:25:55.717Z,101933.66
2022-10-28T14:28:31.376Z,101926.81
2022-10-28T14:31:10.187Z,101927.91
2022-10-28T14:33:43.120Z,101918.88
2022-10-28T14:36:19.139Z,101921.06
2022-10-28T14:39:20.264Z,101920.13
2022-10-28T14:42:12.050Z,101918.13
2022-10-28T14:44:47.751Z,101916.91
2022-10-28T14:47:41.849Z,101924.84
2022-10-28T14:50:14.648Z,101943.56
2022-10-28T14:52:44.388Z,101948.41
2022-10-28T14:55:31.126Z,101955.44
2022-10-28T14:58:23.557Z,101959.81
2022-10-28T15:01:12.349Z,101962.75
2022-10-28T15:03:39.445Z,101957.78
2022-10-28T15:06:26.309Z,101945.19
2022-10-28T15:08:54.263Z,101942.38
2022-10-28T15:11:22.561Z,101957.63
2022-10-28T15:13:52.354Z,101960.13
2022-10-28T15:16:24.433Z,101956.22
2022-10-28T15:18:53.959Z,101952.66
2022-10-28T15:21:22.726Z,101948.75
2022-10-28T15:24:02.779Z,101960.44
2022-10-28T15:26:29.848Z,101961.38
2022-10-28T15:28:56.837Z,101964.63
2022-10-28T15:31:23.809Z,101972.75
2022-10-28T15:33:50.667Z,101978.34
2022-10-28T15:36:23.789Z,101985.34
2022-10-28T15:39:08.635Z,101986.44
2022-10-28T15:41:44.378Z,101990.81
2022-10-28T15:44:35.228Z,101997.00
2022-10-28T15:47:30.054Z,101988.13
2022-10-28T15:50:16.642Z,101987.84
2022-10-28T15:52:53.690Z,101981.59
2022-10-28T15:55:47.692Z,101988.75
2022-10-28T15:58:19.588Z,101991.25
2022-10-28T16:00:57.869Z,101999.31
2022-10-28T16:03:41.479Z,101998.84
2022-10-28T16:06:27.263Z,102004.44
2022-10-28T16:09:23.243Z,102006.44
2022-10-28T16:11:59.011Z,102004.72
2022-10-28T16:14:34.973Z,102012.50
2022-10-28T16:17:29.548Z,102009.38
2022-10-28T16:20:17.193Z,102011.06
2022-10-28T16:22:46.106Z,102017.59
2022-10-28T16:25:15.791Z,102032.97
2022-10-28T16:27:43.146Z,102039.75
2022-10-28T16:30:10.825Z,102045.66
2022-10-28T16:32:42.012Z,102045.47
2022-10-28T16:35:17.845Z,102051.88
2022-10-28T16:37:46.598Z,102062.13
2022-10-28T16:40:45.382Z,102063.22
2022-10-28T16:43:04.154Z,102066.94
2022-10-28T16:45:31.320Z,102063.50
2022-10-28T16:47:58.425Z,102064.13
2022-10-28T16:50:25.578Z,102066.78
2022-10-28T16:52:54.674Z,102065.19
2022-10-28T16:55:21.677Z,102070.50
2022-10-28T16:57:48.806Z,102075.47
2022-10-28T17:00:16.372Z,102081.84
2022-10-28T17:02:43.384Z,102078.41
2022-10-28T17:05:20.025Z,102085.88
2022-10-28T17:07:46.999Z,102079.63
2022-10-28T17:10:14.685Z,102076.31
2022-10-28T17:12:41.827Z,102075.84
2022-10-28T17:15:10.102Z,102084.06
2022-10-28T17:17:37.138Z,102078.31
2022-10-28T17:20:05.242Z,102078.75
2022-10-28T17:22:32.251Z,102082.28
2022-10-28T17:24:59.110Z,102090.31
2022-10-28T17:27:26.210Z,102081.72
2022-10-28T17:29:56.274Z,102096.03
2022-10-28T17:32:23.636Z,102092.72
2022-10-28T17:34:50.716Z,102106.06
2022-10-28T17:37:17.639Z,102109.88
2022-10-28T17:39:44.551Z,102119.78
2022-10-28T17:42:11.488Z,102119.09
2022-10-28T17:44:38.628Z,102120.28
2022-10-28T17:47:05.498Z,102129.88
2022-10-28T17:49:34.567Z,102120.47
2022-10-28T17:52:01.570Z,102135.34
2022-10-28T17:54:28.751Z,102137.78
2022-10-28T17:56:56.749Z,102138.97
2022-10-28T17:59:23.646Z,102140.91
2022-10-28T18:01:50.854Z,102138.38
2022-10-28T18:04:17.934Z,102147.38
2022-10-28T18:06:44.852Z,102155.28
2022-10-28T18:09:13.085Z,102146.09
2022-10-28T18:11:40.195Z,102151.47
2022-10-28T18:14:07.230Z,102149.59
2022-10-28T18:16:36.946Z,102146.97
2022-10-28T18:19:05.795Z,102157.53
2022-10-28T18:21:33.561Z,102152.34
2022-10-28T18:24:06.122Z,102160.84
2022-10-28T18:26:35.396Z,102158.31
2022-10-28T18:29:05.582Z,102170.22
2022-10-28T18:31:33.974Z,102170.22
2022-10-28T18:34:02.200Z,102189.06
2022-10-28T18:36:34.506Z,102208.28
2022-10-28T18:39:03.744Z,102205.97
2022-10-28T18:41:31.795Z,102201.75
2022-10-28T18:44:01.158Z,102210.25
2022-10-28T18:46:29.750Z,102199.72
2022-10-28T18:51:27.921Z,102182.91
2022-10-28T18:53:56.712Z,102181.09
2022-10-28T18:56:27.284Z,102184.63
2022-10-28T18:58:55.297Z,102187.06
2022-10-28T19:01:24.886Z,102183.22
2022-10-28T19:03:53.873Z,102196.78
2022-10-28T19:06:22.016Z,102200.84
2022-10-28T19:08:54.245Z,102194.31
2022-10-28T19:11:22.514Z,102202.53
2022-10-28T19:13:49.635Z,102204.75
2022-10-28T19:16:16.446Z,102212.25
2022-10-28T19:18:43.455Z,102212.28
2022-10-28T19:21:15.802Z,102210.81
2022-10-28T19:23:43.940Z,102217.69
2022-10-28T19:26:12.380Z,102217.75
2022-10-28T19:28:41.157Z,102209.44
2022-10-28T19:31:14.057Z,102214.25
2022-10-28T19:33:41.870Z,102220.66
2022-10-28T19:36:20.135Z,102210.47
2022-10-28T19:38:48.712Z,102217.72
2022-10-28T19:41:18.133Z,102212.50
2022-10-28T19:43:45.788Z,102218.88
2022-10-28T19:46:20.770Z,102227.81
2022-10-28T19:48:53.172Z,102230.25
2022-10-28T19:51:23.085Z,102222.69
2022-10-28T19:53:55.451Z,102233.19
2022-10-28T19:56:23.226Z,102242.22
2022-10-28T19:58:55.786Z,102244.06
2022-10-28T20:01:24.518Z,102249.88
2022-10-28T20:03:52.859Z,102247.03
2022-10-28T20:06:27.949Z,102240.75
2022-10-28T20:08:54.753Z,102249.72
2022-10-28T20:11:26.295Z,102262.38
2022-10-28T20:14:01.043Z,102260.78
2022-10-28T20:16:28.299Z,102259.25
2022-10-28T20:18:56.598Z,102266.66
2022-10-28T20:21:25.699Z,102274.03
2022-10-28T20:23:55.059Z,102274.88
2022-10-28T20:26:25.341Z,102275.91
2022-10-28T20:28:52.688Z,102268.84
2022-10-28T20:31:22.521Z,102273.09
2022-10-28T20:33:55.229Z,102276.00
2022-10-28T20:36:30.448Z,102274.22
2022-10-28T20:39:11.488Z,102282.09
2022-10-28T20:41:40.170Z,102283.69
2022-10-28T20:44:07.788Z,102286.06
2022-10-28T20:46:35.388Z,102285.06
2022-10-28T20:49:03.049Z,102280.63
2022-10-28T20:51:31.702Z,102275.94
2022-10-28T20:53:59.133Z,102285.94
2022-10-28T20:56:28.455Z,102291.72
2022-10-28T20:58:57.750Z,102296.75
2022-10-28T21:01:33.012Z,102293.13
2022-10-28T21:04:04.095Z,102290.50
2022-10-28T21:06:31.163Z,102292.91
2022-10-28T21:08:59.056Z,102284.00
2022-10-28T21:11:27.269Z,102295.59
2022-10-28T21:13:59.777Z,102289.31
2022-10-28T21:16:27.817Z,102291.94
2022-10-28T21:18:54.897Z,102303.00
2022-10-28T21:21:23.708Z,102296.16
2022-10-28T21:23:50.731Z,102288.81
2022-10-28T21:26:17.812Z,102293.00
2022-10-28T21:28:48.505Z,102285.66
2022-10-28T21:31:18.248Z,102285.13
2022-10-28T21:33:46.350Z,102287.78
2022-10-28T21:36:15.660Z,102288.84
2022-10-28T21:38:42.881Z,102284.69
2022-10-28T21:41:20.842Z,102290.44
2022-10-28T21:43:50.349Z,102300.16
2022-10-28T21:46:18.673Z,102301.19
2022-10-28T21:48:46.035Z,102292.56
2022-10-28T21:51:15.586Z,102292.31
2022-10-28T21:53:44.592Z,102289.94
2022-10-28T21:56:19.984Z,102281.81
2022-10-28T21:58:49.509Z,102294.41
2022-10-28T22:01:21.731Z,102297.28
2022-10-28T22:03:49.126Z,102296.53
2022-10-28T22:06:16.098Z,102304.38
2022-10-28T22:08:42.947Z,102296.53
2022-10-28T22:11:15.132Z,102304.13
2022-10-28T22:13:42.260Z,102308.03
2022-10-28T22:16:12.618Z,102306.50
2022-10-28T22:18:39.769Z,102305.16
2022-10-28T22:21:12.027Z,102315.13
2022-10-28T22:23:38.973Z,102324.56
2022-10-28T22:26:11.319Z,102323.00
2022-10-28T22:28:38.745Z,102321.16
2022-10-28T22:31:08.094Z,102335.06
2022-10-28T22:33:35.842Z,102328.25
2022-10-28T22:36:07.739Z,102334.53
2022-10-28T22:38:34.860Z,102328.78
2022-10-28T22:41:21.682Z,102335.56
2022-10-28T22:43:50.557Z,102335.84
2022-10-28T22:46:18.402Z,102334.53
2022-10-28T22:48:45.973Z,102332.69
2022-10-28T22:51:13.465Z,102338.75
2022-10-28T22:53:41.066Z,102335.06
2022-10-28T22:56:11.044Z,102335.06
2022-10-28T22:58:37.898Z,102333.22
2022-10-28T23:01:10.706Z,102334.00
2022-10-28T23:03:40.005Z,102332.44
2022-10-28T23:06:07.637Z,102334.53
2022-10-28T23:08:34.836Z,102335.59
2022-10-28T23:11:01.876Z,102326.66
2022-10-28T23:13:28.850Z,102330.31
2022-10-28T23:15:55.749Z,102329.25
2022-10-28T23:18:28.165Z,102333.72
2022-10-28T23:20:55.039Z,102333.44
2022-10-28T23:23:21.927Z,102328.72
2022-10-28T23:25:53.647Z,102319.56
2022-10-28T23:28:21.246Z,102316.66
2022-10-28T23:30:48.057Z,102310.91
2022-10-28T23:33:15.139Z,102315.09
2022-10-28T23:35:43.154Z,102321.34
2022-10-28T23:38:16.671Z,102318.75
2022-10-28T23:40:43.476Z,102322.38
2022-10-28T23:43:10.448Z,102329.19
2022-10-28T23:45:37.299Z,102326.03
2022-10-28T23:48:04.120Z,102324.94
2022-10-28T23:50:31.023Z,102333.06
2022-10-28T23:52:58.036Z,102338.03
2022-10-28T23:55:25.253Z,102332.00
2022-10-28T23:57:52.110Z,102332.53
